Laconia, NH

2:37 AM EDT on October 31, 2014 (GMT -0400)
Plymouth | Change Station
CLOSE
Current Station
Airport
Location: Plymouth,
Elevation: 505 ft
Nearby Weather Stations

Elev 505 ft 43.78 °N, 71.76 °W | Updated 2 minutes ago

Overcast
Overcast
37 °F
Feels Like 37 °F
N
0
Wind Variable Wind from North

Today
High -- | Low -- °F
--% Chance of Precip.
Yesterday
High -- | Low -- °F
Precip. -- in
7:19 AM 5:38 PM
First Quarter, 52% visible
Pressure 30.01 in
Visibility 10.0 miles
Clouds Overcast 5000 ft
Dew Point 37 °F
Humidity 100%
Rainfall 0.00 in
Snow Depth Not available.
UV 0 out of 12
Pollen .20 out of 12
Air Quality Not available.
Flu Activity Not available.
METAR K1P1 310635Z AUTO 00000KT 10SM OVC050 03/03 A3001 RMK AO2 T00260026

More Conditions Fewer Conditions

Pressure 30.01 in
Visibility 10.0 miles
Clouds Overcast 5000 ft
Dew Point 37 °F
Humidity 100%
Rainfall 0.00 in
Snow Depth Not available.
UV 0 out of 12
Pollen .20 out of 12
Air Quality Not available.
Flu Activity Not available.
METAR K1P1 310635Z AUTO 00000KT 10SM OVC050 03/03 A3001 RMK AO2 T00260026

More Conditions Fewer Conditions

10-Day Weather Forecast

Almanac

Astronomy

Oct. 31, 2014 Rise Set
Actual Time
Civil Twilight
Nautical Twilight
Astronomical Twilight
Moon
Length of Visible Light
Length of Day
Tomorrow will be .
, % of the Moon is Illuminated

Today's Extremes

State Highs State Lows

Community

WunderPhotos

Upload Photos

1,766,571 photos uploaded!

WunderBlogs® & News

Nearby

Air Quality

  Air Quality AQ Index Pollutant
Not available.

Snow Depth

Station Depth Elevation

Earthquake Activity

City Distance Mag. Time & Date
Minimum magnitude displayed is 2.5.

Coastal Water Temperatures

Place Temperature

Nearby Weather Stations